sensor_id;sensor_type;location;lat;lon;timestamp;P1;durP1;ratioP1;P2;durP2;ratioP2
34565;SDS011;20803;42.676;26.348;2022-09-27T00:00:23;8.57;;;7.70;;
34565;SDS011;20803;42.676;26.348;2022-09-27T00:02:49;11.57;;;7.93;;
34565;SDS011;20803;42.676;26.348;2022-09-27T00:05:15;9.90;;;7.93;;
34565;SDS011;20803;42.676;26.348;2022-09-27T00:07:42;9.87;;;7.70;;
34565;SDS011;20803;42.676;26.348;2022-09-27T00:10:08;9.60;;;8.00;;
34565;SDS011;20803;42.676;26.348;2022-09-27T00:12:34;8.40;;;7.23;;
34565;SDS011;20803;42.676;26.348;2022-09-27T00:14:59;8.80;;;8.00;;
34565;SDS011;20803;42.676;26.348;2022-09-27T00:17:26;9.53;;;7.00;;
34565;SDS011;20803;42.676;26.348;2022-09-27T00:19:52;7.87;;;7.10;;
34565;SDS011;20803;42.676;26.348;2022-09-27T00:22:20;8.80;;;7.67;;
34565;SDS011;20803;42.676;26.348;2022-09-27T00:24:48;9.03;;;7.87;;
34565;SDS011;20803;42.676;26.348;2022-09-27T00:27:13;9.07;;;7.07;;
34565;SDS011;20803;42.676;26.348;2022-09-27T00:29:39;7.97;;;7.17;;
34565;SDS011;20803;42.676;26.348;2022-09-27T00:32:04;7.83;;;7.03;;
34565;SDS011;20803;42.676;26.348;2022-09-27T00:34:30;12.37;;;7.47;;
34565;SDS011;20803;42.676;26.348;2022-09-27T00:36:55;8.40;;;6.97;;
34565;SDS011;20803;42.676;26.348;2022-09-27T00:39:21;8.20;;;7.40;;
34565;SDS011;20803;42.676;26.348;2022-09-27T00:41:46;8.10;;;7.20;;
34565;SDS011;20803;42.676;26.348;2022-09-27T00:49:29;8.13;;;6.73;;
34565;SDS011;20803;42.676;26.348;2022-09-27T00:52:00;7.13;;;6.50;;
34565;SDS011;20803;42.676;26.348;2022-09-27T00:54:29;7.27;;;6.27;;
34565;SDS011;20803;42.676;26.348;2022-09-27T00:56:58;7.10;;;6.40;;
34565;SDS011;20803;42.676;26.348;2022-09-27T00:59:26;6.73;;;6.13;;
34565;SDS011;20803;42.676;26.348;2022-09-27T01:01:52;8.00;;;6.40;;
34565;SDS011;20803;42.676;26.348;2022-09-27T01:04:27;8.73;;;7.03;;
34565;SDS011;20803;42.676;26.348;2022-09-27T01:06:54;12.13;;;7.00;;
34565;SDS011;20803;42.676;26.348;2022-09-27T01:09:20;7.63;;;6.93;;
34565;SDS011;20803;42.676;26.348;2022-09-27T01:11:51;8.57;;;6.37;;
34565;SDS011;20803;42.676;26.348;2022-09-27T01:28:22;8.67;;;7.13;;
34565;SDS011;20803;42.676;26.348;2022-09-27T01:31:32;8.33;;;7.53;;
34565;SDS011;20803;42.676;26.348;2022-09-27T01:34:21;8.40;;;7.60;;
34565;SDS011;20803;42.676;26.348;2022-09-27T01:47:27;7.87;;;7.07;;
34565;SDS011;20803;42.676;26.348;2022-09-27T01:55:41;8.07;;;7.23;;
34565;SDS011;20803;42.676;26.348;2022-09-27T01:58:13;9.13;;;7.87;;
34565;SDS011;20803;42.676;26.348;2022-09-27T02:00:45;12.67;;;8.00;;
34565;SDS011;20803;42.676;26.348;2022-09-27T02:03:14;9.97;;;8.53;;
34565;SDS011;20803;42.676;26.348;2022-09-27T02:08:18;9.77;;;8.77;;
34565;SDS011;20803;42.676;26.348;2022-09-27T02:11:08;9.30;;;8.30;;
34565;SDS011;20803;42.676;26.348;2022-09-27T02:19:01;10.80;;;9.70;;
34565;SDS011;20803;42.676;26.348;2022-09-27T02:24:44;11.47;;;10.27;;
34565;SDS011;20803;42.676;26.348;2022-09-27T02:27:41;11.27;;;10.27;;
34565;SDS011;20803;42.676;26.348;2022-09-27T02:30:08;10.77;;;9.60;;
34565;SDS011;20803;42.676;26.348;2022-09-27T02:32:36;11.50;;;10.30;;
34565;SDS011;20803;42.676;26.348;2022-09-27T02:35:04;12.77;;;10.40;;
34565;SDS011;20803;42.676;26.348;2022-09-27T02:37:34;14.03;;;11.10;;
34565;SDS011;20803;42.676;26.348;2022-09-27T02:40:00;11.43;;;9.23;;
34565;SDS011;20803;42.676;26.348;2022-09-27T02:42:27;12.80;;;11.20;;
34565;SDS011;20803;42.676;26.348;2022-09-27T02:44:53;10.90;;;9.80;;
34565;SDS011;20803;42.676;26.348;2022-09-27T02:53:11;12.00;;;9.90;;
34565;SDS011;20803;42.676;26.348;2022-09-27T03:00:40;11.77;;;9.87;;
34565;SDS011;20803;42.676;26.348;2022-09-27T03:03:11;10.40;;;9.40;;
34565;SDS011;20803;42.676;26.348;2022-09-27T03:06:07;13.03;;;10.03;;
34565;SDS011;20803;42.676;26.348;2022-09-27T03:08:36;11.50;;;9.33;;
34565;SDS011;20803;42.676;26.348;2022-09-27T03:11:02;11.27;;;8.90;;
34565;SDS011;20803;42.676;26.348;2022-09-27T03:13:28;8.70;;;7.67;;
34565;SDS011;20803;42.676;26.348;2022-09-27T03:15:54;12.87;;;8.30;;
34565;SDS011;20803;42.676;26.348;2022-09-27T03:18:19;9.13;;;8.33;;
34565;SDS011;20803;42.676;26.348;2022-09-27T03:20:45;9.43;;;8.30;;
34565;SDS011;20803;42.676;26.348;2022-09-27T03:23:11;11.47;;;8.03;;
34565;SDS011;20803;42.676;26.348;2022-09-27T03:25:36;14.43;;;8.80;;
34565;SDS011;20803;42.676;26.348;2022-09-27T03:28:02;8.13;;;7.33;;
34565;SDS011;20803;42.676;26.348;2022-09-27T03:30:27;9.27;;;8.43;;
34565;SDS011;20803;42.676;26.348;2022-09-27T03:32:53;9.87;;;8.87;;
34565;SDS011;20803;42.676;26.348;2022-09-27T03:35:18;9.67;;;8.10;;
34565;SDS011;20803;42.676;26.348;2022-09-27T03:37:44;9.93;;;8.43;;
34565;SDS011;20803;42.676;26.348;2022-09-27T03:40:11;8.73;;;7.77;;
34565;SDS011;20803;42.676;26.348;2022-09-27T03:42:37;8.87;;;7.97;;
34565;SDS011;20803;42.676;26.348;2022-09-27T03:45:03;9.57;;;8.57;;
34565;SDS011;20803;42.676;26.348;2022-09-27T03:47:29;10.27;;;8.57;;
34565;SDS011;20803;42.676;26.348;2022-09-27T03:49:55;10.23;;;9.13;;
34565;SDS011;20803;42.676;26.348;2022-09-27T03:52:20;9.80;;;8.80;;
34565;SDS011;20803;42.676;26.348;2022-09-27T03:54:46;9.90;;;8.90;;
34565;SDS011;20803;42.676;26.348;2022-09-27T03:57:12;9.83;;;8.83;;
34565;SDS011;20803;42.676;26.348;2022-09-27T03:59:37;12.13;;;8.40;;
34565;SDS011;20803;42.676;26.348;2022-09-27T04:02:03;11.13;;;9.03;;
34565;SDS011;20803;42.676;26.348;2022-09-27T04:04:28;9.30;;;8.30;;
34565;SDS011;20803;42.676;26.348;2022-09-27T04:06:53;10.17;;;9.17;;
34565;SDS011;20803;42.676;26.348;2022-09-27T04:09:20;10.70;;;9.50;;
34565;SDS011;20803;42.676;26.348;2022-09-27T04:11:45;11.53;;;8.30;;
34565;SDS011;20803;42.676;26.348;2022-09-27T04:14:10;10.57;;;7.70;;
34565;SDS011;20803;42.676;26.348;2022-09-27T04:16:37;8.20;;;7.40;;
34565;SDS011;20803;42.676;26.348;2022-09-27T04:19:04;8.67;;;7.77;;
34565;SDS011;20803;42.676;26.348;2022-09-27T04:21:31;10.07;;;8.07;;
34565;SDS011;20803;42.676;26.348;2022-09-27T04:23:57;8.63;;;7.83;;
34565;SDS011;20803;42.676;26.348;2022-09-27T04:26:22;11.07;;;8.27;;
34565;SDS011;20803;42.676;26.348;2022-09-27T04:28:49;8.27;;;6.67;;
34565;SDS011;20803;42.676;26.348;2022-09-27T04:31:16;8.50;;;6.77;;
34565;SDS011;20803;42.676;26.348;2022-09-27T04:33:42;9.30;;;7.37;;
34565;SDS011;20803;42.676;26.348;2022-09-27T04:36:08;10.60;;;7.77;;
34565;SDS011;20803;42.676;26.348;2022-09-27T04:38:54;9.93;;;8.17;;
34565;SDS011;20803;42.676;26.348;2022-09-27T04:41:21;9.07;;;7.47;;
34565;SDS011;20803;42.676;26.348;2022-09-27T04:43:48;8.20;;;7.50;;
34565;SDS011;20803;42.676;26.348;2022-09-27T04:46:15;9.33;;;8.07;;
34565;SDS011;20803;42.676;26.348;2022-09-27T04:48:40;9.17;;;8.27;;
34565;SDS011;20803;42.676;26.348;2022-09-27T04:51:06;8.30;;;7.40;;
34565;SDS011;20803;42.676;26.348;2022-09-27T04:53:31;8.33;;;7.63;;
34565;SDS011;20803;42.676;26.348;2022-09-27T04:55:57;9.00;;;7.97;;
34565;SDS011;20803;42.676;26.348;2022-09-27T04:58:23;9.83;;;8.47;;
34565;SDS011;20803;42.676;26.348;2022-09-27T05:00:49;13.17;;;10.00;;
34565;SDS011;20803;42.676;26.348;2022-09-27T05:03:16;9.80;;;8.80;;
34565;SDS011;20803;42.676;26.348;2022-09-27T05:05:43;12.87;;;9.80;;
34565;SDS011;20803;42.676;26.348;2022-09-27T05:08:08;10.93;;;9.93;;
34565;SDS011;20803;42.676;26.348;2022-09-27T05:10:35;11.97;;;10.33;;
34565;SDS011;20803;42.676;26.348;2022-09-27T05:13:00;14.53;;;12.07;;
34565;SDS011;20803;42.676;26.348;2022-09-27T05:15:26;15.27;;;12.13;;
34565;SDS011;20803;42.676;26.348;2022-09-27T05:17:51;13.70;;;12.00;;
34565;SDS011;20803;42.676;26.348;2022-09-27T05:20:17;13.90;;;12.10;;
34565;SDS011;20803;42.676;26.348;2022-09-27T05:22:44;14.40;;;11.70;;
34565;SDS011;20803;42.676;26.348;2022-09-27T05:25:09;13.23;;;11.77;;
34565;SDS011;20803;42.676;26.348;2022-09-27T05:27:35;13.70;;;12.20;;
34565;SDS011;20803;42.676;26.348;2022-09-27T05:30:01;15.80;;;12.60;;
34565;SDS011;20803;42.676;26.348;2022-09-27T05:32:27;12.57;;;11.40;;
34565;SDS011;20803;42.676;26.348;2022-09-27T05:34:53;13.67;;;12.27;;
34565;SDS011;20803;42.676;26.348;2022-09-27T05:37:19;16.87;;;12.80;;
34565;SDS011;20803;42.676;26.348;2022-09-27T05:39:44;15.77;;;12.43;;
34565;SDS011;20803;42.676;26.348;2022-09-27T05:42:10;14.00;;;11.90;;
34565;SDS011;20803;42.676;26.348;2022-09-27T05:44:39;13.03;;;11.60;;
34565;SDS011;20803;42.676;26.348;2022-09-27T05:47:05;12.80;;;11.40;;
34565;SDS011;20803;42.676;26.348;2022-09-27T05:49:31;11.90;;;10.60;;
34565;SDS011;20803;42.676;26.348;2022-09-27T05:51:57;13.10;;;11.67;;
34565;SDS011;20803;42.676;26.348;2022-09-27T05:54:22;13.90;;;11.27;;
34565;SDS011;20803;42.676;26.348;2022-09-27T05:56:48;12.20;;;11.10;;
34565;SDS011;20803;42.676;26.348;2022-09-27T05:59:13;12.40;;;11.30;;
34565;SDS011;20803;42.676;26.348;2022-09-27T06:01:39;13.73;;;11.53;;
34565;SDS011;20803;42.676;26.348;2022-09-27T06:04:04;13.77;;;11.33;;
34565;SDS011;20803;42.676;26.348;2022-09-27T06:06:30;11.80;;;10.60;;
34565;SDS011;20803;42.676;26.348;2022-09-27T06:08:58;12.60;;;11.30;;
34565;SDS011;20803;42.676;26.348;2022-09-27T06:11:25;13.07;;;11.27;;
34565;SDS011;20803;42.676;26.348;2022-09-27T06:13:51;14.63;;;11.77;;
34565;SDS011;20803;42.676;26.348;2022-09-27T06:16:17;14.97;;;11.33;;
34565;SDS011;20803;42.676;26.348;2022-09-27T06:18:42;13.77;;;11.53;;
34565;SDS011;20803;42.676;26.348;2022-09-27T06:21:08;11.67;;;10.53;;
34565;SDS011;20803;42.676;26.348;2022-09-27T06:23:33;11.90;;;10.03;;
34565;SDS011;20803;42.676;26.348;2022-09-27T06:26:00;12.40;;;9.43;;
34565;SDS011;20803;42.676;26.348;2022-09-27T06:28:27;11.00;;;9.93;;
34565;SDS011;20803;42.676;26.348;2022-09-27T06:30:53;11.57;;;9.93;;
34565;SDS011;20803;42.676;26.348;2022-09-27T06:33:19;10.83;;;9.13;;
34565;SDS011;20803;42.676;26.348;2022-09-27T06:35:45;9.73;;;8.80;;
34565;SDS011;20803;42.676;26.348;2022-09-27T06:38:13;12.10;;;8.63;;
34565;SDS011;20803;42.676;26.348;2022-09-27T06:40:41;10.73;;;8.93;;
34565;SDS011;20803;42.676;26.348;2022-09-27T06:43:11;8.13;;;7.23;;
34565;SDS011;20803;42.676;26.348;2022-09-27T06:45:46;15.83;;;7.97;;
34565;SDS011;20803;42.676;26.348;2022-09-27T06:48:13;8.63;;;7.83;;
34565;SDS011;20803;42.676;26.348;2022-09-27T06:50:41;8.47;;;7.67;;
34565;SDS011;20803;42.676;26.348;2022-09-27T06:53:08;9.40;;;8.40;;
34565;SDS011;20803;42.676;26.348;2022-09-27T06:55:36;10.03;;;8.17;;
34565;SDS011;20803;42.676;26.348;2022-09-27T06:58:02;8.17;;;7.23;;
34565;SDS011;20803;42.676;26.348;2022-09-27T07:00:47;12.97;;;7.93;;
34565;SDS011;20803;42.676;26.348;2022-09-27T07:03:13;10.40;;;7.40;;
34565;SDS011;20803;42.676;26.348;2022-09-27T07:05:40;8.87;;;7.87;;
34565;SDS011;20803;42.676;26.348;2022-09-27T07:08:06;11.30;;;7.20;;
34565;SDS011;20803;42.676;26.348;2022-09-27T07:10:36;8.40;;;6.93;;
34565;SDS011;20803;42.676;26.348;2022-09-27T07:13:03;8.47;;;7.07;;
34565;SDS011;20803;42.676;26.348;2022-09-27T07:15:36;7.63;;;6.93;;
34565;SDS011;20803;42.676;26.348;2022-09-27T07:18:04;8.43;;;7.40;;
34565;SDS011;20803;42.676;26.348;2022-09-27T07:20:31;11.97;;;7.47;;
34565;SDS011;20803;42.676;26.348;2022-09-27T07:22:58;8.53;;;7.33;;
34565;SDS011;20803;42.676;26.348;2022-09-27T07:25:23;11.57;;;7.70;;
34565;SDS011;20803;42.676;26.348;2022-09-27T07:27:50;10.27;;;7.17;;
34565;SDS011;20803;42.676;26.348;2022-09-27T07:30:17;10.07;;;7.07;;
34565;SDS011;20803;42.676;26.348;2022-09-27T07:32:43;8.43;;;7.60;;
34565;SDS011;20803;42.676;26.348;2022-09-27T07:35:10;7.47;;;6.43;;
34565;SDS011;20803;42.676;26.348;2022-09-27T07:37:41;7.93;;;6.93;;
34565;SDS011;20803;42.676;26.348;2022-09-27T07:40:07;10.17;;;6.80;;
34565;SDS011;20803;42.676;26.348;2022-09-27T07:42:33;8.60;;;6.90;;
34565;SDS011;20803;42.676;26.348;2022-09-27T07:45:03;8.30;;;7.40;;
34565;SDS011;20803;42.676;26.348;2022-09-27T07:47:30;8.47;;;7.17;;
34565;SDS011;20803;42.676;26.348;2022-09-27T07:49:56;10.10;;;6.73;;
34565;SDS011;20803;42.676;26.348;2022-09-27T07:52:22;9.30;;;7.13;;
34565;SDS011;20803;42.676;26.348;2022-09-27T07:54:47;9.23;;;7.20;;
34565;SDS011;20803;42.676;26.348;2022-09-27T07:57:13;8.17;;;7.13;;
34565;SDS011;20803;42.676;26.348;2022-09-27T07:59:39;7.37;;;6.57;;
34565;SDS011;20803;42.676;26.348;2022-09-27T08:02:05;7.03;;;6.33;;
34565;SDS011;20803;42.676;26.348;2022-09-27T08:04:37;8.73;;;6.63;;
34565;SDS011;20803;42.676;26.348;2022-09-27T08:07:02;7.40;;;6.53;;
34565;SDS011;20803;42.676;26.348;2022-09-27T08:09:28;6.93;;;6.33;;
34565;SDS011;20803;42.676;26.348;2022-09-27T08:11:55;8.00;;;6.67;;
34565;SDS011;20803;42.676;26.348;2022-09-27T08:14:22;7.67;;;6.07;;
34565;SDS011;20803;42.676;26.348;2022-09-27T08:16:48;7.50;;;6.70;;
34565;SDS011;20803;42.676;26.348;2022-09-27T08:19:15;8.43;;;6.90;;
34565;SDS011;20803;42.676;26.348;2022-09-27T08:21:41;8.17;;;7.10;;
34565;SDS011;20803;42.676;26.348;2022-09-27T08:24:06;8.53;;;7.47;;
34565;SDS011;20803;42.676;26.348;2022-09-27T08:26:32;8.67;;;6.30;;
34565;SDS011;20803;42.676;26.348;2022-09-27T08:28:57;7.37;;;6.30;;
34565;SDS011;20803;42.676;26.348;2022-09-27T08:31:23;7.63;;;6.83;;
34565;SDS011;20803;42.676;26.348;2022-09-27T08:33:49;7.10;;;6.37;;
34565;SDS011;20803;42.676;26.348;2022-09-27T08:36:15;10.23;;;7.03;;
34565;SDS011;20803;42.676;26.348;2022-09-27T08:38:41;7.63;;;6.53;;
34565;SDS011;20803;42.676;26.348;2022-09-27T08:49:53;9.03;;;5.60;;
34565;SDS011;20803;42.676;26.348;2022-09-27T08:52:32;7.27;;;5.83;;
34565;SDS011;20803;42.676;26.348;2022-09-27T08:55:09;8.30;;;5.67;;
34565;SDS011;20803;42.676;26.348;2022-09-27T08:57:48;5.77;;;5.20;;
34565;SDS011;20803;42.676;26.348;2022-09-27T09:00:19;6.87;;;5.57;;
34565;SDS011;20803;42.676;26.348;2022-09-27T09:02:45;7.63;;;6.43;;
34565;SDS011;20803;42.676;26.348;2022-09-27T09:05:15;7.47;;;5.93;;
34565;SDS011;20803;42.676;26.348;2022-09-27T09:07:58;12.20;;;6.33;;
34565;SDS011;20803;42.676;26.348;2022-09-27T09:30:18;8.93;;;6.30;;
34565;SDS011;20803;42.676;26.348;2022-09-27T09:32:56;8.67;;;6.00;;
34565;SDS011;20803;42.676;26.348;2022-09-27T09:35:42;7.77;;;5.27;;
34565;SDS011;20803;42.676;26.348;2022-09-27T09:41:00;7.30;;;5.90;;
34565;SDS011;20803;42.676;26.348;2022-09-27T09:43:44;7.20;;;5.90;;
34565;SDS011;20803;42.676;26.348;2022-09-27T09:49:32;9.33;;;5.87;;
34565;SDS011;20803;42.676;26.348;2022-09-27T09:51:43;9.83;;;6.27;;
34565;SDS011;20803;42.676;26.348;2022-09-27T09:56:56;6.97;;;6.30;;
34565;SDS011;20803;42.676;26.348;2022-09-27T09:59:29;7.53;;;5.27;;
34565;SDS011;20803;42.676;26.348;2022-09-27T10:02:12;11.00;;;6.00;;
34565;SDS011;20803;42.676;26.348;2022-09-27T10:04:50;7.90;;;6.23;;
34565;SDS011;20803;42.676;26.348;2022-09-27T10:07:16;8.10;;;6.03;;
34565;SDS011;20803;42.676;26.348;2022-09-27T10:09:47;7.30;;;5.50;;
34565;SDS011;20803;42.676;26.348;2022-09-27T10:12:13;7.83;;;6.57;;
34565;SDS011;20803;42.676;26.348;2022-09-27T10:14:39;11.57;;;6.37;;
34565;SDS011;20803;42.676;26.348;2022-09-27T10:17:09;7.90;;;5.93;;
34565;SDS011;20803;42.676;26.348;2022-09-27T10:19:38;11.03;;;5.97;;
34565;SDS011;20803;42.676;26.348;2022-09-27T10:22:18;7.23;;;5.23;;
34565;SDS011;20803;42.676;26.348;2022-09-27T10:24:56;9.90;;;5.87;;
34565;SDS011;20803;42.676;26.348;2022-09-27T10:27:26;8.07;;;5.70;;
34565;SDS011;20803;42.676;26.348;2022-09-27T10:30:02;8.10;;;5.07;;
34565;SDS011;20803;42.676;26.348;2022-09-27T10:32:30;11.57;;;5.83;;
34565;SDS011;20803;42.676;26.348;2022-09-27T10:37:44;7.43;;;5.93;;
34565;SDS011;20803;42.676;26.348;2022-09-27T10:40:29;10.57;;;5.77;;
34565;SDS011;20803;42.676;26.348;2022-09-27T10:42:57;8.67;;;5.93;;
34565;SDS011;20803;42.676;26.348;2022-09-27T10:45:27;10.23;;;6.30;;
34565;SDS011;20803;42.676;26.348;2022-09-27T10:47:57;7.97;;;6.10;;
34565;SDS011;20803;42.676;26.348;2022-09-27T10:50:25;11.37;;;6.13;;
34565;SDS011;20803;42.676;26.348;2022-09-27T10:55:45;10.70;;;6.20;;
34565;SDS011;20803;42.676;26.348;2022-09-27T10:58:16;8.03;;;5.67;;
34565;SDS011;20803;42.676;26.348;2022-09-27T11:00:45;12.60;;;6.07;;
34565;SDS011;20803;42.676;26.348;2022-09-27T11:03:19;9.73;;;6.23;;
34565;SDS011;20803;42.676;26.348;2022-09-27T11:05:45;12.27;;;6.37;;
34565;SDS011;20803;42.676;26.348;2022-09-27T11:08:32;8.93;;;6.10;;
34565;SDS011;20803;42.676;26.348;2022-09-27T11:11:05;11.77;;;5.90;;
34565;SDS011;20803;42.676;26.348;2022-09-27T11:13:37;11.13;;;5.77;;
34565;SDS011;20803;42.676;26.348;2022-09-27T11:30:12;11.80;;;6.47;;
34565;SDS011;20803;42.676;26.348;2022-09-27T12:08:22;9.13;;;4.97;;
34565;SDS011;20803;42.676;26.348;2022-09-27T12:10:50;6.77;;;4.50;;
34565;SDS011;20803;42.676;26.348;2022-09-27T12:13:26;8.87;;;5.10;;
34565;SDS011;20803;42.676;26.348;2022-09-27T12:15:57;7.60;;;4.87;;
34565;SDS011;20803;42.676;26.348;2022-09-27T12:18:31;10.03;;;4.80;;
34565;SDS011;20803;42.676;26.348;2022-09-27T12:21:02;7.77;;;5.73;;
34565;SDS011;20803;42.676;26.348;2022-09-27T12:23:34;12.63;;;5.57;;
34565;SDS011;20803;42.676;26.348;2022-09-27T12:26:24;8.87;;;5.90;;
34565;SDS011;20803;42.676;26.348;2022-09-27T12:31:45;11.40;;;5.73;;
34565;SDS011;20803;42.676;26.348;2022-09-27T12:34:21;10.27;;;5.20;;
34565;SDS011;20803;42.676;26.348;2022-09-27T12:36:52;12.97;;;5.60;;
34565;SDS011;20803;42.676;26.348;2022-09-27T12:39:27;8.57;;;5.23;;
34565;SDS011;20803;42.676;26.348;2022-09-27T12:42:13;7.00;;;5.90;;
34565;SDS011;20803;42.676;26.348;2022-09-27T12:44:44;13.63;;;6.17;;
34565;SDS011;20803;42.676;26.348;2022-09-27T12:50:02;11.03;;;5.90;;
34565;SDS011;20803;42.676;26.348;2022-09-27T12:52:48;8.93;;;5.57;;
34565;SDS011;20803;42.676;26.348;2022-09-27T12:57:50;7.43;;;6.33;;
34565;SDS011;20803;42.676;26.348;2022-09-27T13:00:22;6.00;;;5.50;;
34565;SDS011;20803;42.676;26.348;2022-09-27T13:08:26;8.43;;;5.30;;
34565;SDS011;20803;42.676;26.348;2022-09-27T13:13:38;8.00;;;5.50;;
34565;SDS011;20803;42.676;26.348;2022-09-27T13:16:04;8.03;;;5.30;;
34565;SDS011;20803;42.676;26.348;2022-09-27T13:21:01;8.17;;;5.50;;
34565;SDS011;20803;42.676;26.348;2022-09-27T13:25:55;12.00;;;5.33;;
34565;SDS011;20803;42.676;26.348;2022-09-27T13:30:56;11.33;;;5.70;;
34565;SDS011;20803;42.676;26.348;2022-09-27T13:41:41;11.33;;;4.80;;
34565;SDS011;20803;42.676;26.348;2022-09-27T13:52:46;9.03;;;5.13;;
34565;SDS011;20803;42.676;26.348;2022-09-27T13:55:44;7.07;;;5.23;;
34565;SDS011;20803;42.676;26.348;2022-09-27T14:00:41;9.40;;;5.50;;
34565;SDS011;20803;42.676;26.348;2022-09-27T14:06:05;9.23;;;5.27;;
34565;SDS011;20803;42.676;26.348;2022-09-27T14:08:37;10.00;;;5.33;;
34565;SDS011;20803;42.676;26.348;2022-09-27T14:11:11;10.13;;;5.17;;
34565;SDS011;20803;42.676;26.348;2022-09-27T14:13:39;11.63;;;5.33;;
34565;SDS011;20803;42.676;26.348;2022-09-27T14:16:11;14.10;;;6.07;;
34565;SDS011;20803;42.676;26.348;2022-09-27T14:18:44;11.40;;;5.73;;
34565;SDS011;20803;42.676;26.348;2022-09-27T14:21:34;7.20;;;5.23;;
34565;SDS011;20803;42.676;26.348;2022-09-27T14:24:20;11.63;;;5.00;;
34565;SDS011;20803;42.676;26.348;2022-09-27T14:26:46;9.07;;;5.47;;
34565;SDS011;20803;42.676;26.348;2022-09-27T14:29:16;13.27;;;6.00;;
34565;SDS011;20803;42.676;26.348;2022-09-27T14:31:42;11.67;;;5.33;;
34565;SDS011;20803;42.676;26.348;2022-09-27T14:34:10;8.43;;;5.47;;
34565;SDS011;20803;42.676;26.348;2022-09-27T14:36:36;10.50;;;4.30;;
34565;SDS011;20803;42.676;26.348;2022-09-27T14:41:48;9.87;;;5.43;;
34565;SDS011;20803;42.676;26.348;2022-09-27T14:44:14;11.63;;;4.77;;
34565;SDS011;20803;42.676;26.348;2022-09-27T14:46:42;8.37;;;4.77;;
34565;SDS011;20803;42.676;26.348;2022-09-27T14:49:21;9.80;;;4.20;;
34565;SDS011;20803;42.676;26.348;2022-09-27T14:51:55;10.53;;;4.70;;
34565;SDS011;20803;42.676;26.348;2022-09-27T14:54:22;15.27;;;5.80;;
34565;SDS011;20803;42.676;26.348;2022-09-27T14:56:50;8.93;;;3.90;;
34565;SDS011;20803;42.676;26.348;2022-09-27T14:59:24;7.43;;;3.67;;
34565;SDS011;20803;42.676;26.348;2022-09-27T15:01:58;7.30;;;4.20;;
34565;SDS011;20803;42.676;26.348;2022-09-27T15:04:27;10.50;;;4.40;;
34565;SDS011;20803;42.676;26.348;2022-09-27T15:06:57;9.43;;;4.40;;
34565;SDS011;20803;42.676;26.348;2022-09-27T15:09:26;6.30;;;3.30;;
34565;SDS011;20803;42.676;26.348;2022-09-27T15:11:53;12.37;;;3.73;;
34565;SDS011;20803;42.676;26.348;2022-09-27T15:14:24;6.83;;;4.00;;
34565;SDS011;20803;42.676;26.348;2022-09-27T15:16:53;9.13;;;4.13;;
34565;SDS011;20803;42.676;26.348;2022-09-27T15:19:26;7.07;;;4.80;;
34565;SDS011;20803;42.676;26.348;2022-09-27T15:21:53;9.67;;;4.40;;
34565;SDS011;20803;42.676;26.348;2022-09-27T15:24:37;7.47;;;4.07;;
34565;SDS011;20803;42.676;26.348;2022-09-27T15:27:11;7.40;;;4.00;;
34565;SDS011;20803;42.676;26.348;2022-09-27T15:29:39;7.57;;;4.30;;
34565;SDS011;20803;42.676;26.348;2022-09-27T15:32:05;13.20;;;4.17;;
34565;SDS011;20803;42.676;26.348;2022-09-27T15:34:38;17.17;;;4.40;;
34565;SDS011;20803;42.676;26.348;2022-09-27T15:37:03;8.97;;;4.67;;
34565;SDS011;20803;42.676;26.348;2022-09-27T15:39:36;10.87;;;4.80;;
34565;SDS011;20803;42.676;26.348;2022-09-27T15:47:38;15.90;;;4.67;;
34565;SDS011;20803;42.676;26.348;2022-09-27T15:52:41;10.50;;;4.77;;
34565;SDS011;20803;42.676;26.348;2022-09-27T15:55:10;11.30;;;4.47;;
34565;SDS011;20803;42.676;26.348;2022-09-27T15:57:36;12.80;;;4.30;;
34565;SDS011;20803;42.676;26.348;2022-09-27T16:00:03;6.80;;;4.30;;
34565;SDS011;20803;42.676;26.348;2022-09-27T16:02:29;11.23;;;4.63;;
34565;SDS011;20803;42.676;26.348;2022-09-27T16:04:55;9.30;;;5.00;;
34565;SDS011;20803;42.676;26.348;2022-09-27T16:07:20;10.33;;;5.37;;
34565;SDS011;20803;42.676;26.348;2022-09-27T16:09:46;10.53;;;3.80;;
34565;SDS011;20803;42.676;26.348;2022-09-27T16:12:14;9.27;;;3.77;;
34565;SDS011;20803;42.676;26.348;2022-09-27T16:14:40;6.43;;;3.33;;
34565;SDS011;20803;42.676;26.348;2022-09-27T16:17:05;8.50;;;4.50;;
34565;SDS011;20803;42.676;26.348;2022-09-27T16:19:31;12.50;;;5.00;;
34565;SDS011;20803;42.676;26.348;2022-09-27T16:21:56;11.00;;;4.60;;
34565;SDS011;20803;42.676;26.348;2022-09-27T16:24:22;13.93;;;5.03;;
34565;SDS011;20803;42.676;26.348;2022-09-27T16:26:49;11.97;;;5.03;;
34565;SDS011;20803;42.676;26.348;2022-09-27T16:29:14;12.93;;;5.90;;
34565;SDS011;20803;42.676;26.348;2022-09-27T16:31:40;11.47;;;5.40;;
34565;SDS011;20803;42.676;26.348;2022-09-27T16:34:09;8.63;;;4.33;;
34565;SDS011;20803;42.676;26.348;2022-09-27T16:36:35;10.83;;;5.20;;
34565;SDS011;20803;42.676;26.348;2022-09-27T16:39:01;9.77;;;5.40;;
34565;SDS011;20803;42.676;26.348;2022-09-27T16:41:29;7.80;;;4.90;;
34565;SDS011;20803;42.676;26.348;2022-09-27T16:43:54;10.77;;;4.57;;
34565;SDS011;20803;42.676;26.348;2022-09-27T16:46:20;8.83;;;5.10;;
34565;SDS011;20803;42.676;26.348;2022-09-27T16:48:45;11.67;;;5.70;;
34565;SDS011;20803;42.676;26.348;2022-09-27T16:51:16;12.03;;;5.63;;
34565;SDS011;20803;42.676;26.348;2022-09-27T16:54:01;7.13;;;5.40;;
34565;SDS011;20803;42.676;26.348;2022-09-27T16:56:29;10.40;;;6.47;;
34565;SDS011;20803;42.676;26.348;2022-09-27T16:58:56;10.53;;;6.00;;
34565;SDS011;20803;42.676;26.348;2022-09-27T17:01:23;13.00;;;7.10;;
34565;SDS011;20803;42.676;26.348;2022-09-27T17:03:49;12.73;;;8.47;;
34565;SDS011;20803;42.676;26.348;2022-09-27T17:06:16;13.80;;;7.13;;
34565;SDS011;20803;42.676;26.348;2022-09-27T17:08:43;13.53;;;9.33;;
34565;SDS011;20803;42.676;26.348;2022-09-27T17:11:16;17.33;;;10.77;;
34565;SDS011;20803;42.676;26.348;2022-09-27T17:13:43;11.50;;;9.60;;
34565;SDS011;20803;42.676;26.348;2022-09-27T17:16:10;26.93;;;17.70;;
34565;SDS011;20803;42.676;26.348;2022-09-27T17:18:37;16.90;;;11.50;;
34565;SDS011;20803;42.676;26.348;2022-09-27T17:21:03;19.53;;;13.70;;
34565;SDS011;20803;42.676;26.348;2022-09-27T17:23:30;19.87;;;12.67;;
34565;SDS011;20803;42.676;26.348;2022-09-27T17:26:04;18.67;;;13.40;;
34565;SDS011;20803;42.676;26.348;2022-09-27T17:28:48;18.53;;;12.90;;
34565;SDS011;20803;42.676;26.348;2022-09-27T17:31:15;15.93;;;11.07;;
34565;SDS011;20803;42.676;26.348;2022-09-27T17:33:42;21.23;;;12.07;;
34565;SDS011;20803;42.676;26.348;2022-09-27T17:36:11;20.23;;;12.20;;
34565;SDS011;20803;42.676;26.348;2022-09-27T17:38:38;17.90;;;11.03;;
34565;SDS011;20803;42.676;26.348;2022-09-27T17:41:05;19.27;;;11.70;;
34565;SDS011;20803;42.676;26.348;2022-09-27T17:43:35;18.03;;;11.20;;
34565;SDS011;20803;42.676;26.348;2022-09-27T17:46:02;13.40;;;10.97;;
34565;SDS011;20803;42.676;26.348;2022-09-27T17:48:32;13.00;;;9.23;;
34565;SDS011;20803;42.676;26.348;2022-09-27T17:51:16;14.50;;;9.73;;
34565;SDS011;20803;42.676;26.348;2022-09-27T17:53:42;9.37;;;8.20;;
34565;SDS011;20803;42.676;26.348;2022-09-27T17:56:08;8.97;;;7.97;;
34565;SDS011;20803;42.676;26.348;2022-09-27T17:58:34;9.97;;;8.97;;
34565;SDS011;20803;42.676;26.348;2022-09-27T18:01:09;10.73;;;9.33;;
34565;SDS011;20803;42.676;26.348;2022-09-27T18:03:34;15.83;;;10.40;;